createdAt,value
2018-08-06T00:00:09.863Z,74.05
2018-08-06T00:01:09.867Z,73.96
2018-08-06T00:02:09.870Z,74.25
2018-08-06T00:03:09.873Z,74.40
2018-08-06T00:04:09.876Z,74.69
2018-08-06T00:05:09.879Z,74.88
2018-08-06T00:06:09.882Z,74.30
2018-08-06T00:07:09.884Z,74.69
2018-08-06T00:08:09.889Z,74.88
2018-08-06T00:09:09.890Z,74.88
2018-08-06T00:10:09.894Z,75.07
2018-08-06T00:11:09.898Z,74.79
2018-08-06T00:12:09.900Z,74.79
2018-08-06T00:13:09.904Z,74.92
2018-08-06T00:14:09.906Z,74.98
2018-08-06T00:15:09.910Z,74.79
2018-08-06T00:16:09.912Z,74.98
2018-08-06T00:17:09.916Z,75.17
2018-08-06T00:18:09.919Z,74.69
2018-08-06T00:19:09.922Z,74.79
2018-08-06T00:20:09.925Z,74.79
2018-08-06T00:21:09.926Z,74.88
2018-08-06T00:22:09.929Z,74.98
2018-08-06T00:23:09.933Z,75.31
2018-08-06T00:24:09.937Z,75.02
2018-08-06T00:25:09.939Z,74.79
2018-08-06T00:26:09.942Z,74.98
2018-08-06T00:27:09.946Z,74.79
2018-08-06T00:28:09.949Z,74.69
2018-08-06T00:29:09.951Z,75.37
2018-08-06T00:30:09.956Z,75.65
2018-08-06T00:31:09.958Z,75.46
2018-08-06T00:32:09.965Z,75.46
2018-08-06T00:33:09.963Z,75.56
2018-08-06T00:34:09.971Z,75.84
2018-08-06T00:35:09.970Z,75.94
2018-08-06T00:36:09.973Z,75.75
2018-08-06T00:37:09.975Z,75.65
2018-08-06T00:38:09.978Z,75.65
2018-08-06T00:39:09.983Z,75.46
2018-08-06T00:40:09.985Z,75.94
2018-08-06T00:41:09.988Z,75.75
2018-08-06T00:42:09.990Z,75.84
2018-08-06T00:43:09.994Z,75.65
2018-08-06T00:44:09.997Z,76.42
2018-08-06T00:45:09.998Z,76.42
2018-08-06T00:46:10.005Z,76.61
2018-08-06T00:47:10.008Z,76.23
2018-08-06T00:48:10.012Z,76.23
2018-08-06T00:49:10.010Z,76.14
2018-08-06T00:50:10.015Z,76.14
2018-08-06T00:51:10.018Z,76.81
2018-08-06T00:52:10.020Z,76.23
2018-08-06T00:53:10.022Z,76.61
2018-08-06T00:54:10.029Z,76.23
2018-08-06T00:55:10.028Z,76.32
2018-08-06T00:56:10.036Z,76.04
2018-08-06T00:57:10.034Z,76.32
2018-08-06T00:58:10.038Z,76.32
2018-08-06T00:59:10.040Z,75.84
2018-08-06T01:00:10.044Z,75.84
2018-08-06T01:01:10.045Z,76.32
2018-08-06T01:02:10.049Z,76.71
2018-08-06T01:03:10.051Z,76.32
2018-08-06T01:04:10.056Z,76.14
2018-08-06T01:05:10.057Z,76.42
2018-08-06T01:06:10.060Z,76.32
2018-08-06T01:07:10.063Z,76.71
2018-08-06T01:08:10.066Z,76.23
2018-08-06T01:09:10.067Z,76.81
2018-08-06T01:10:10.071Z,76.42
2018-08-06T01:11:10.088Z,76.81
2018-08-06T01:12:10.077Z,76.52
2018-08-06T01:13:10.080Z,76.57
2018-08-06T01:14:10.082Z,77.15
2018-08-06T01:15:10.085Z,77.25
2018-08-06T01:16:10.088Z,76.48
2018-08-06T01:17:10.090Z,76.77
2018-08-06T01:18:10.092Z,76.86
2018-08-06T01:19:10.096Z,77.06
2018-08-06T01:20:10.099Z,77.83
2018-08-06T01:21:10.101Z,77.25
2018-08-06T01:22:10.104Z,77.06
2018-08-06T01:23:10.107Z,77.34
2018-08-06T01:24:10.110Z,77.34
2018-08-06T01:25:10.112Z,77.53
2018-08-06T01:26:10.115Z,77.53
2018-08-06T01:27:10.122Z,77.25
2018-08-06T01:28:10.121Z,77.53
2018-08-06T01:29:10.123Z,77.53
2018-08-06T01:30:10.130Z,77.53
2018-08-06T01:31:10.128Z,77.44
2018-08-06T01:32:10.130Z,78.11
2018-08-06T01:33:10.134Z,77.53
2018-08-06T01:34:10.136Z,77.34
2018-08-06T01:35:10.140Z,78.21
2018-08-06T01:36:10.142Z,78.02
2018-08-06T01:37:10.143Z,78.11
2018-08-06T01:38:10.146Z,77.40
2018-08-06T01:39:10.152Z,77.40
2018-08-06T01:40:10.156Z,78.11
2018-08-06T01:41:10.155Z,78.11
2018-08-06T01:42:10.157Z,78.21
2018-08-06T01:43:10.159Z,78.21
2018-08-06T01:44:10.163Z,77.88
2018-08-06T01:45:10.165Z,78.40
2018-08-06T01:46:10.168Z,78.40
2018-08-06T01:47:10.171Z,78.11
2018-08-06T01:48:10.173Z,77.69
2018-08-06T01:49:10.176Z,77.78
2018-08-06T01:50:10.177Z,78.21
2018-08-06T01:51:10.183Z,78.36
2018-08-06T01:52:10.183Z,78.17
2018-08-06T01:53:10.185Z,77.92
2018-08-06T01:54:10.187Z,77.88
2018-08-06T01:55:10.189Z,78.27
2018-08-06T01:56:10.193Z,78.17
2018-08-06T01:57:10.194Z,77.88
2018-08-06T01:58:10.197Z,78.17
2018-08-06T01:59:10.199Z,77.88
2018-08-06T02:00:10.202Z,78.08
2018-08-06T02:01:10.204Z,78.08
2018-08-06T02:02:10.208Z,78.17
2018-08-06T02:03:10.209Z,78.27
2018-08-06T02:04:10.212Z,78.17
2018-08-06T02:05:10.216Z,78.17
2018-08-06T02:06:10.218Z,78.27
2018-08-06T02:07:10.220Z,77.69
2018-08-06T02:08:10.222Z,78.27
2018-08-06T02:09:10.223Z,78.65
2018-08-06T02:10:10.227Z,79.22
2018-08-06T02:11:10.231Z,79.13
2018-08-06T02:12:10.233Z,79.13
2018-08-06T02:13:10.233Z,79.32
2018-08-06T02:14:10.239Z,79.13
2018-08-06T02:15:10.239Z,79.61
2018-08-06T02:16:10.241Z,79.52
2018-08-06T02:17:10.245Z,79.86
2018-08-06T02:18:10.245Z,79.76
2018-08-06T02:19:10.250Z,79.86
2018-08-06T02:20:10.251Z,80.43
2018-08-06T02:21:10.252Z,80.05
2018-08-06T02:22:10.255Z,79.47
2018-08-06T02:23:10.261Z,80.15
2018-08-06T02:24:10.260Z,80.24
2018-08-06T02:25:10.264Z,80.43
2018-08-06T02:26:10.267Z,81.10
2018-08-06T02:27:10.272Z,81.64
2018-08-06T02:28:10.270Z,81.74
2018-08-06T02:29:10.273Z,81.74
2018-08-06T02:30:10.275Z,81.54
2018-08-06T02:31:10.278Z,82.31
2018-08-06T02:32:10.279Z,82.98
2018-08-06T02:33:10.281Z,82.79
2018-08-06T02:34:10.284Z,83.18
2018-08-06T02:35:10.291Z,83.18
2018-08-06T02:36:10.294Z,83.08
2018-08-06T02:37:10.291Z,82.60
2018-08-06T02:38:10.294Z,83.08
2018-08-06T02:39:10.295Z,83.65
2018-08-06T02:40:10.296Z,83.47
2018-08-06T02:41:10.299Z,83.65
2018-08-06T02:42:10.303Z,83.56
2018-08-06T02:43:10.304Z,83.65
2018-08-06T02:44:10.308Z,83.75
2018-08-06T02:45:10.308Z,83.47
2018-08-06T02:46:10.310Z,82.89
2018-08-06T02:47:10.314Z,83.08
2018-08-06T02:48:10.314Z,83.75
2018-08-06T02:49:10.316Z,83.65
2018-08-06T02:50:10.320Z,83.56
2018-08-06T02:51:10.322Z,83.56
2018-08-06T02:52:10.323Z,83.75
2018-08-06T02:53:10.328Z,83.56
2018-08-06T02:54:10.329Z,83.75
2018-08-06T02:55:10.330Z,84.23
2018-08-06T02:56:10.332Z,85.05
2018-08-06T02:57:10.333Z,84.67
2018-08-06T02:58:10.336Z,84.77
2018-08-06T02:59:10.339Z,84.58
2018-08-06T03:00:10.381Z,84.86
2018-08-06T03:01:10.341Z,84.67
2018-08-06T03:02:10.344Z,84.28
2018-08-06T03:03:10.347Z,84.48
2018-08-06T03:04:10.349Z,84.48
2018-08-06T03:05:10.351Z,84.14
2018-08-06T03:06:10.352Z,83.47
2018-08-06T03:07:10.356Z,84.42
2018-08-06T03:08:10.357Z,84.14
2018-08-06T03:09:10.358Z,83.94
2018-08-06T03:10:10.380Z,84.38
2018-08-06T03:11:10.364Z,83.56
2018-08-06T03:12:10.367Z,83.85
2018-08-06T03:13:10.366Z,82.31
2018-08-06T03:14:10.371Z,80.78
2018-08-06T03:15:10.370Z,80.73
2018-08-06T03:16:10.373Z,80.05
2018-08-06T03:17:10.377Z,80.24
2018-08-06T03:18:10.375Z,79.67
2018-08-06T03:19:10.377Z,79.76
2018-08-06T03:20:10.380Z,80.63
2018-08-06T03:21:10.383Z,80.53
2018-08-06T03:22:10.384Z,79.72
2018-08-06T03:23:10.386Z,80.73
2018-08-06T03:24:10.391Z,80.11
2018-08-06T03:25:10.390Z,80.58
2018-08-06T03:26:10.395Z,80.78
2018-08-06T03:27:10.393Z,82.03
2018-08-06T03:28:10.396Z,82.03
2018-08-06T03:29:10.397Z,82.60
2018-08-06T03:30:10.400Z,81.54
2018-08-06T03:31:10.405Z,81.54
2018-08-06T03:32:10.404Z,81.84
2018-08-06T03:33:10.404Z,81.84
2018-08-06T03:34:10.405Z,82.12
2018-08-06T03:35:10.409Z,81.74
2018-08-06T03:36:10.410Z,82.70
2018-08-06T03:37:10.412Z,81.84
2018-08-06T03:38:10.414Z,82.89
2018-08-06T03:39:10.416Z,83.47
2018-08-06T03:40:10.434Z,83.37
2018-08-06T03:41:10.419Z,83.65
2018-08-06T03:42:10.422Z,83.52
2018-08-06T03:43:10.422Z,83.81
2018-08-06T03:44:10.426Z,83.94
2018-08-06T03:45:10.429Z,84.33
2018-08-06T03:46:10.428Z,84.42
2018-08-06T03:47:10.431Z,84.38
2018-08-06T03:48:10.434Z,84.95
2018-08-06T03:49:10.436Z,84.77
2018-08-06T03:50:10.435Z,84.58
2018-08-06T03:51:10.437Z,84.95
2018-08-06T03:52:10.440Z,84.77
2018-08-06T03:53:10.441Z,85.25
2018-08-06T03:54:10.445Z,84.95
2018-08-06T03:55:10.444Z,84.95
2018-08-06T03:56:10.448Z,85.05
2018-08-06T03:57:10.448Z,85.63
2018-08-06T03:58:10.450Z,85.44
2018-08-06T03:59:10.453Z,85.44
2018-08-06T04:00:10.454Z,85.53
2018-08-06T04:01:10.455Z,85.63
2018-08-06T04:02:10.457Z,85.25
2018-08-06T04:03:10.459Z,85.53
2018-08-06T04:04:10.461Z,85.53
2018-08-06T04:05:10.465Z,85.63
2018-08-06T04:06:10.463Z,85.44
2018-08-06T04:07:10.465Z,85.72
2018-08-06T04:08:10.468Z,85.82
2018-08-06T04:09:10.469Z,85.72
2018-08-06T04:10:10.470Z,85.78
2018-08-06T04:11:10.472Z,85.82
2018-08-06T04:12:10.476Z,85.68
2018-08-06T04:13:10.476Z,86.93
2018-08-06T04:14:10.478Z,86.97
2018-08-06T04:15:10.480Z,86.74
2018-08-06T04:16:10.481Z,86.45
2018-08-06T04:17:10.483Z,86.35
2018-08-06T04:18:10.485Z,86.16
2018-08-06T04:19:10.485Z,86.07
2018-08-06T04:20:10.488Z,86.35
2018-08-06T04:21:10.488Z,85.88
2018-08-06T04:22:10.490Z,85.68
2018-08-06T04:23:10.494Z,85.92
2018-08-06T04:24:10.495Z,85.78
2018-08-06T04:25:10.496Z,86.74
2018-08-06T04:26:10.496Z,86.25
2018-08-06T04:27:10.499Z,86.74
2018-08-06T04:28:10.502Z,86.64
2018-08-06T04:29:10.502Z,87.12
2018-08-06T04:30:10.503Z,86.74
2018-08-06T04:31:10.506Z,87.02
2018-08-06T04:32:10.508Z,86.07
2018-08-06T04:33:10.531Z,86.74
2018-08-06T04:34:10.510Z,86.64
2018-08-06T04:35:10.512Z,86.74
2018-08-06T04:36:10.514Z,87.31
2018-08-06T04:37:10.515Z,87.21
2018-08-06T04:38:10.517Z,86.74
2018-08-06T04:39:10.519Z,87.41
2018-08-06T04:40:10.522Z,87.70
2018-08-06T04:41:10.523Z,87.41
2018-08-06T04:42:10.571Z,87.12
2018-08-06T04:43:10.525Z,87.50
2018-08-06T04:44:10.527Z,87.60
2018-08-06T04:45:10.529Z,87.31
2018-08-06T04:46:10.531Z,87.21
2018-08-06T04:47:10.533Z,87.45
2018-08-06T04:48:10.535Z,86.78
2018-08-06T04:49:10.536Z,86.97
2018-08-06T04:50:10.537Z,87.07
2018-08-06T04:51:10.538Z,86.40
2018-08-06T04:52:10.539Z,85.92
2018-08-06T04:53:10.541Z,85.34
2018-08-06T04:54:10.543Z,85.15
2018-08-06T04:55:10.544Z,84.38
2018-08-06T04:56:10.547Z,84.33
2018-08-06T04:57:10.547Z,83.37
2018-08-06T04:58:10.549Z,82.60
2018-08-06T04:59:10.556Z,82.70
2018-08-06T05:00:10.557Z,82.70
2018-08-06T05:01:10.554Z,82.70
2018-08-06T05:02:10.556Z,81.84
2018-08-06T05:03:10.559Z,80.87
2018-08-06T05:04:10.560Z,79.96
2018-08-06T05:05:10.561Z,80.63
2018-08-06T05:06:10.565Z,80.53
2018-08-06T05:07:10.567Z,79.96
2018-08-06T05:08:10.567Z,79.96
2018-08-06T05:09:10.568Z,79.86
2018-08-06T05:10:10.572Z,79.47
2018-08-06T05:11:10.572Z,80.05
2018-08-06T05:12:10.573Z,79.67
2018-08-06T05:13:10.575Z,78.90
2018-08-06T05:14:10.578Z,79.09
2018-08-06T05:15:10.578Z,79.22
2018-08-06T05:16:10.581Z,79.13
2018-08-06T05:17:10.583Z,79.13
2018-08-06T05:18:10.584Z,78.75
2018-08-06T05:19:10.587Z,78.36
2018-08-06T05:20:10.589Z,79.13
2018-08-06T05:21:10.590Z,78.94
2018-08-06T05:22:10.591Z,79.52
2018-08-06T05:23:10.594Z,78.45
2018-08-06T05:24:10.596Z,78.65
2018-08-06T05:25:10.597Z,78.45
2018-08-06T05:26:10.599Z,77.88
2018-08-06T05:27:10.601Z,78.21
2018-08-06T05:28:10.604Z,77.59
2018-08-06T05:29:10.606Z,77.15
2018-08-06T05:30:10.607Z,77.73
2018-08-06T05:31:10.633Z,77.44
2018-08-06T05:32:10.611Z,76.77
2018-08-06T05:33:10.614Z,77.83
2018-08-06T05:34:10.615Z,77.34
2018-08-06T05:35:10.618Z,76.19
2018-08-06T05:36:10.619Z,75.90
2018-08-06T05:37:10.620Z,75.84
2018-08-06T05:38:10.626Z,75.75
2018-08-06T05:39:10.625Z,74.98
2018-08-06T05:40:10.627Z,74.88
2018-08-06T05:41:10.630Z,75.46
2018-08-06T05:42:10.631Z,75.07
2018-08-06T05:43:10.635Z,74.88
2018-08-06T05:44:10.636Z,75.17
2018-08-06T05:45:10.638Z,74.98
2018-08-06T05:46:10.646Z,75.27
2018-08-06T05:47:10.642Z,74.98
2018-08-06T05:48:10.691Z,74.92
2018-08-06T05:49:10.647Z,75.21
2018-08-06T05:50:10.651Z,75.31
2018-08-06T05:51:10.663Z,74.63
2018-08-06T05:52:10.660Z,73.86
2018-08-06T05:53:10.655Z,73.86
2018-08-06T05:54:10.658Z,74.15
2018-08-06T05:55:10.661Z,73.77
2018-08-06T05:56:10.664Z,73.51
2018-08-06T05:57:10.666Z,73.03
2018-08-06T05:58:10.669Z,72.94
2018-08-06T05:59:10.673Z,73.22
2018-08-06T06:00:10.674Z,72.84
2018-08-06T06:01:10.676Z,72.55
2018-08-06T06:02:10.680Z,72.74
2018-08-06T06:03:10.688Z,72.65
2018-08-06T06:04:10.684Z,73.03
2018-08-06T06:05:10.686Z,72.55
2018-08-06T06:06:10.689Z,72.36
2018-08-06T06:07:10.692Z,72.07
2018-08-06T06:08:10.694Z,72.17
2018-08-06T06:09:10.696Z,72.17
2018-08-06T06:10:10.702Z,72.11
2018-08-06T06:11:10.702Z,71.53
2018-08-06T06:12:10.705Z,71.62
2018-08-06T06:13:10.708Z,71.24
2018-08-06T06:14:10.711Z,71.34
2018-08-06T06:15:10.713Z,71.34
2018-08-06T06:16:10.716Z,71.43
2018-08-06T06:17:10.718Z,70.76
2018-08-06T06:18:10.723Z,71.14
2018-08-06T06:19:10.741Z,71.18
2018-08-06T06:20:10.733Z,70.60
2018-08-06T06:21:10.729Z,70.70
2018-08-06T06:22:10.732Z,70.50
2018-08-06T06:23:10.737Z,70.50
2018-08-06T06:24:10.740Z,70.60
2018-08-06T06:25:10.742Z,69.93
2018-08-06T06:26:10.744Z,69.73
2018-08-06T06:27:10.749Z,69.45
2018-08-06T06:28:10.758Z,70.02
2018-08-06T06:29:10.757Z,70.02
2018-08-06T06:30:10.759Z,69.83
2018-08-06T06:31:10.762Z,69.25
2018-08-06T06:32:10.764Z,69.15
2018-08-06T06:33:10.768Z,69.09
2018-08-06T06:34:10.770Z,69.38
2018-08-06T06:35:10.775Z,69.19
2018-08-06T06:36:10.777Z,68.90
2018-08-06T06:37:10.781Z,68.61
2018-08-06T06:38:10.782Z,68.42
2018-08-06T06:39:10.788Z,68.13
2018-08-06T06:40:10.790Z,67.94
2018-08-06T06:41:10.793Z,67.94
2018-08-06T06:42:10.796Z,68.04
2018-08-06T06:43:10.801Z,68.90
2018-08-06T06:44:10.804Z,68.04
2018-08-06T06:45:10.807Z,68.13
2018-08-06T06:46:10.811Z,67.84
2018-08-06T06:47:10.814Z,68.16
2018-08-06T06:48:10.817Z,68.04
2018-08-06T06:49:10.838Z,67.97
2018-08-06T06:50:10.836Z,67.88
2018-08-06T06:51:10.832Z,67.10
2018-08-06T06:52:10.837Z,66.33
2018-08-06T06:53:10.835Z,67.04
2018-08-06T06:54:10.841Z,66.56
2018-08-06T06:55:10.844Z,66.66
2018-08-06T06:56:10.851Z,66.08
2018-08-06T06:57:10.852Z,66.27
2018-08-06T06:58:10.853Z,66.08
2018-08-06T06:59:10.859Z,66.56
2018-08-06T07:00:10.864Z,66.08
2018-08-06T07:01:10.866Z,66.08
2018-08-06T07:02:10.869Z,66.27
2018-08-06T07:03:10.874Z,66.40
2018-08-06T07:04:10.878Z,65.24
2018-08-06T07:05:10.882Z,65.69
2018-08-06T07:06:10.885Z,65.72
2018-08-06T07:07:10.890Z,65.53
2018-08-06T07:08:10.894Z,64.37
2018-08-06T07:09:10.899Z,64.47
2018-08-06T07:10:10.906Z,64.31
2018-08-06T07:11:10.906Z,63.63
2018-08-06T07:12:10.910Z,63.73
2018-08-06T07:13:10.913Z,63.70
2018-08-06T07:14:10.918Z,63.70
2018-08-06T07:15:10.922Z,64.08
2018-08-06T07:16:10.927Z,63.73
2018-08-06T07:17:10.933Z,63.24
2018-08-06T07:18:10.935Z,63.15
2018-08-06T07:19:10.939Z,63.53
2018-08-06T07:20:10.959Z,63.05
2018-08-06T07:21:10.947Z,63.24
2018-08-06T07:22:10.952Z,62.95
2018-08-06T07:23:10.957Z,63.53
2018-08-06T07:24:10.962Z,63.08
2018-08-06T07:25:10.964Z,62.89
2018-08-06T07:26:10.970Z,62.70
2018-08-06T07:27:10.977Z,61.92
2018-08-06T07:28:10.978Z,62.31
2018-08-06T07:29:10.983Z,61.83
2018-08-06T07:30:10.988Z,62.31
2018-08-06T07:31:10.992Z,62.50
2018-08-06T07:32:10.997Z,62.31
2018-08-06T07:33:11.002Z,61.47
2018-08-06T07:34:11.005Z,61.08
2018-08-06T07:35:11.011Z,61.76
2018-08-06T07:36:11.016Z,60.99
2018-08-06T07:37:11.019Z,60.21
2018-08-06T07:38:11.024Z,60.50
2018-08-06T07:39:11.029Z,61.08
2018-08-06T07:40:11.088Z,60.99
2018-08-06T07:41:11.037Z,60.99
2018-08-06T07:42:11.045Z,60.92
2018-08-06T07:43:11.064Z,60.53
2018-08-06T07:44:11.054Z,61.02
2018-08-06T07:45:11.062Z,60.14
2018-08-06T07:46:11.063Z,60.34
2018-08-06T07:47:11.161Z,60.21
2018-08-06T07:48:11.075Z,60.60
2018-08-06T07:49:11.080Z,60.11
2018-08-06T07:50:11.082Z,60.31
2018-08-06T07:51:11.089Z,60.69
2018-08-06T07:52:11.094Z,60.14
2018-08-06T07:53:11.098Z,59.28
2018-08-06T07:54:11.104Z,58.80
2018-08-06T07:55:11.111Z,58.82
2018-08-06T07:56:11.114Z,59.21
2018-08-06T07:57:11.119Z,58.63
2018-08-06T07:58:11.125Z,58.53
2018-08-06T07:59:11.130Z,57.66
2018-08-06T08:00:11.135Z,58.14
2018-08-06T08:01:11.140Z,57.28
2018-08-06T08:02:11.154Z,57.40
2018-08-06T08:03:11.151Z,56.46
2018-08-06T08:04:11.158Z,54.55
2018-08-06T08:05:11.164Z,53.80
2018-08-06T08:06:11.170Z,52.50
2018-08-06T08:07:11.185Z,50.53
2018-08-06T08:08:11.185Z,48.93
2018-08-06T08:09:11.193Z,47.80
2018-08-06T08:10:11.202Z,46.30
2018-08-06T08:11:11.212Z,44.78
2018-08-06T08:12:11.220Z,43.49
2018-08-06T08:13:11.231Z,43.59
2018-08-06T08:14:11.242Z,44.05
2018-08-06T08:15:11.252Z,43.71
2018-08-06T08:16:11.263Z,43.02
2018-08-06T08:17:11.277Z,42.38
2018-08-06T08:18:11.290Z,41.31
2018-08-06T08:19:11.302Z,40.80
2018-08-06T08:20:11.365Z,41.87
2018-08-06T08:21:11.326Z,41.19
2018-08-06T08:22:11.339Z,42.38
2018-08-06T08:23:11.353Z,43.74
2018-08-06T08:24:11.368Z,43.93
2018-08-06T08:25:11.381Z,43.00
2018-08-06T08:26:11.396Z,42.61
2018-08-06T08:27:11.409Z,42.41
2018-08-06T08:28:11.424Z,43.76
2018-08-06T08:29:11.436Z,44.01
2018-08-06T08:30:11.455Z,44.52
2018-08-06T08:31:11.466Z,43.68
2018-08-06T08:32:11.482Z,42.12
2018-08-06T08:33:11.495Z,42.22
2018-08-06T08:34:11.512Z,41.77
2018-08-06T08:35:11.530Z,40.16
2018-08-06T08:36:11.541Z,39.28
2018-08-06T08:37:11.554Z,39.08
2018-08-06T08:38:11.570Z,38.98
2018-08-06T08:39:11.584Z,38.82
2018-08-06T08:40:11.599Z,37.85
2018-08-06T08:41:11.614Z,38.61
2018-08-06T08:42:11.630Z,39.20
2018-08-06T08:43:11.644Z,38.73
2018-08-06T08:44:11.659Z,38.71
2018-08-06T08:45:11.677Z,39.43
2018-08-06T08:46:11.690Z,41.09
2018-08-06T08:47:11.705Z,39.49
2018-08-06T08:48:11.722Z,37.67
2018-08-06T08:49:11.735Z,35.85
2018-08-06T08:50:11.751Z,36.28
2018-08-06T08:51:11.767Z,37.91
2018-08-06T08:52:11.784Z,39.59
2018-08-06T08:53:11.799Z,41.28
2018-08-06T08:54:11.813Z,39.67
2018-08-06T08:55:11.830Z,38.34
2018-08-06T08:56:11.849Z,37.37
2018-08-06T08:57:11.861Z,37.00
2018-08-06T08:58:11.878Z,36.24
2018-08-06T08:59:11.895Z,35.53
2018-08-06T09:00:11.912Z,35.75
2018-08-06T09:01:11.924Z,36.77
2018-08-06T09:02:11.940Z,37.73
2018-08-06T09:03:11.966Z,37.35
2018-08-06T09:04:11.972Z,38.51
2018-08-06T09:05:11.988Z,37.57
2018-08-06T09:06:12.004Z,35.85
2018-08-06T09:07:12.026Z,35.66
2018-08-06T09:08:12.037Z,36.24
2018-08-06T09:09:12.053Z,35.65
2018-08-06T09:10:12.072Z,35.75
2018-08-06T09:11:12.084Z,35.39
2018-08-06T09:12:12.100Z,34.72
2018-08-06T09:13:12.116Z,34.01
2018-08-06T09:14:12.221Z,34.11
2018-08-06T09:15:12.149Z,34.81
2018-08-06T09:16:12.168Z,33.75
2018-08-06T09:17:12.181Z,33.54
2018-08-06T09:18:12.197Z,35.37
2018-08-06T09:19:12.213Z,35.35
2018-08-06T09:20:12.231Z,36.10
2018-08-06T09:21:12.321Z,36.49
2018-08-06T09:22:12.263Z,36.38
2018-08-06T09:23:12.282Z,37.35
2018-08-06T09:24:12.295Z,36.96
2018-08-06T09:25:12.317Z,35.85
2018-08-06T09:26:12.327Z,34.41
2018-08-06T09:27:12.343Z,34.59
2018-08-06T09:28:12.360Z,35.25
2018-08-06T09:29:12.376Z,35.52
2018-08-06T09:30:12.396Z,36.67
2018-08-06T09:31:12.409Z,36.79
2018-08-06T09:32:12.429Z,36.67
2018-08-06T09:33:12.448Z,35.63
2018-08-06T09:34:12.459Z,35.29
2018-08-06T09:35:12.474Z,35.63
2018-08-06T09:36:12.496Z,36.36
2018-08-06T09:37:12.512Z,36.67
2018-08-06T09:38:12.526Z,35.66
2018-08-06T09:39:12.543Z,34.88
2018-08-06T09:40:12.559Z,34.21
2018-08-06T09:41:12.575Z,34.39
2018-08-06T09:42:12.595Z,33.62
2018-08-06T09:43:12.609Z,33.56
2018-08-06T09:44:12.627Z,33.25
2018-08-06T09:45:12.642Z,33.70
2018-08-06T09:46:12.660Z,33.72
2018-08-06T09:47:12.675Z,33.53
2018-08-06T09:48:12.694Z,33.26
2018-08-06T09:49:12.709Z,33.07
2018-08-06T09:50:12.725Z,33.56
2018-08-06T09:51:12.742Z,32.87
2018-08-06T09:52:12.759Z,33.17
2018-08-06T09:53:12.776Z,33.26
2018-08-06T09:54:12.792Z,33.44
2018-08-06T09:55:12.810Z,33.43
2018-08-06T09:56:12.829Z,33.62
2018-08-06T09:57:12.906Z,34.67
2018-08-06T09:58:12.859Z,33.53
2018-08-06T09:59:12.876Z,33.65
2018-08-06T10:00:12.896Z,32.50
2018-08-06T10:01:12.909Z,32.31
2018-08-06T10:02:12.926Z,32.12
2018-08-06T10:03:12.943Z,32.20
2018-08-06T10:04:12.961Z,32.97
2018-08-06T10:05:12.977Z,33.34
2018-08-06T10:06:13.105Z,33.62
2018-08-06T10:07:13.011Z,33.26
2018-08-06T10:08:13.028Z,33.22
2018-08-06T10:09:13.045Z,34.55
2018-08-06T10:10:13.059Z,34.49
2018-08-06T10:11:13.080Z,33.85
2018-08-06T10:12:13.109Z,32.50
2018-08-06T10:13:13.112Z,32.21
2018-08-06T10:14:13.128Z,31.28
2018-08-06T10:15:13.145Z,31.00
2018-08-06T10:16:13.162Z,30.21
2018-08-06T10:17:13.178Z,30.52
2018-08-06T10:18:13.195Z,30.21
2018-08-06T10:19:13.297Z,30.77
2018-08-06T10:20:13.229Z,30.49
2018-08-06T10:21:13.246Z,31.18
2018-08-06T10:22:13.263Z,31.76
2018-08-06T10:23:13.281Z,31.56
2018-08-06T10:24:13.299Z,31.04
2018-08-06T10:25:13.312Z,32.38
2018-08-06T10:26:13.331Z,32.40
2018-08-06T10:27:13.347Z,33.04
2018-08-06T10:28:13.364Z,33.04
2018-08-06T10:29:13.380Z,32.79
2018-08-06T10:30:13.423Z,31.66
2018-08-06T10:31:13.414Z,31.25
2018-08-06T10:32:13.431Z,31.38
2018-08-06T10:33:13.447Z,30.98
2018-08-06T10:34:13.472Z,30.31
2018-08-06T10:35:13.481Z,30.51
2018-08-06T10:36:13.499Z,30.10
2018-08-06T10:37:13.514Z,30.28
2018-08-06T10:38:13.531Z,31.71
2018-08-06T10:39:13.554Z,32.01
2018-08-06T10:40:13.574Z,31.82
2018-08-06T10:41:13.583Z,31.63
2018-08-06T10:42:13.597Z,31.76
2018-08-06T10:43:13.613Z,31.51
2018-08-06T10:44:13.630Z,32.48
2018-08-06T10:45:13.649Z,32.87
2018-08-06T10:46:13.663Z,33.31
2018-08-06T10:47:13.679Z,33.44
2018-08-06T10:48:13.729Z,32.78
2018-08-06T10:49:13.712Z,32.10
2018-08-06T10:50:13.728Z,32.20
2018-08-06T10:51:13.745Z,32.28
2018-08-06T10:52:13.768Z,32.48
2018-08-06T10:53:13.777Z,32.86
2018-08-06T10:54:13.800Z,32.66
2018-08-06T10:55:13.809Z,33.07
2018-08-06T10:56:13.830Z,31.90
2018-08-06T10:57:13.862Z,32.79
2018-08-06T10:58:13.858Z,33.59
2018-08-06T10:59:13.876Z,34.78
2018-08-06T11:00:13.891Z,34.41
2018-08-06T11:01:13.906Z,33.25
2018-08-06T11:02:13.922Z,32.89
2018-08-06T11:03:13.938Z,32.68
2018-08-06T11:04:13.954Z,32.97
2018-08-06T11:05:13.970Z,32.87
2018-08-06T11:06:13.986Z,32.50
2018-08-06T11:07:14.001Z,32.12
2018-08-06T11:08:14.018Z,32.12
2018-08-06T11:09:14.032Z,32.02
2018-08-06T11:10:14.048Z,32.38
2018-08-06T11:11:14.064Z,33.14
2018-08-06T11:12:14.078Z,33.53
2018-08-06T11:13:14.095Z,33.62
2018-08-06T11:14:14.112Z,33.72
2018-08-06T11:15:14.125Z,34.67
2018-08-06T11:16:14.141Z,35.52
2018-08-06T11:17:14.155Z,35.91
2018-08-06T11:18:14.171Z,36.38
2018-08-06T11:19:14.185Z,35.63
2018-08-06T11:20:14.201Z,35.35
2018-08-06T11:21:14.213Z,34.65
2018-08-06T11:22:14.230Z,35.91
2018-08-06T11:23:17.069Z,37.02
2018-08-06T11:24:14.259Z,38.18
2018-08-06T11:25:14.271Z,38.96
2018-08-06T11:26:14.287Z,38.38
2018-08-06T11:27:14.300Z,38.01
2018-08-06T11:28:14.316Z,38.12
2018-08-06T11:29:14.328Z,37.54
2018-08-06T11:30:14.343Z,36.67
2018-08-06T11:31:14.356Z,36.87
2018-08-06T11:32:14.368Z,36.00
2018-08-06T11:33:14.382Z,35.81
2018-08-06T11:34:14.395Z,35.91
2018-08-06T11:35:14.408Z,35.52
2018-08-06T11:36:14.423Z,35.89
2018-08-06T11:37:14.435Z,36.93
2018-08-06T11:38:14.451Z,37.70
2018-08-06T11:39:14.461Z,37.91
2018-08-06T11:40:14.479Z,38.18
2018-08-06T11:41:14.487Z,37.81
2018-08-06T11:42:14.501Z,38.20
2018-08-06T11:43:14.515Z,37.81
2018-08-06T11:44:14.527Z,37.71
2018-08-06T11:45:14.541Z,37.32
2018-08-06T11:46:14.552Z,37.63
2018-08-06T11:47:14.564Z,37.43
2018-08-06T11:48:14.578Z,37.73
2018-08-06T11:49:14.590Z,37.63
2018-08-06T11:50:14.603Z,37.24
2018-08-06T11:51:14.617Z,37.54
2018-08-06T11:52:14.628Z,37.83
2018-08-06T11:53:14.640Z,37.43
2018-08-06T11:54:14.652Z,37.22
2018-08-06T11:55:14.667Z,38.10
2018-08-06T11:56:14.678Z,37.91
2018-08-06T11:57:14.690Z,37.81
2018-08-06T11:58:14.702Z,38.01
2018-08-06T11:59:14.716Z,37.81
2018-08-06T12:00:14.729Z,37.63
2018-08-06T12:01:14.739Z,36.94
2018-08-06T12:02:14.752Z,36.26
2018-08-06T12:03:14.764Z,36.34
2018-08-06T12:04:14.777Z,36.44
2018-08-06T12:05:14.788Z,37.71
2018-08-06T12:06:14.802Z,37.89
2018-08-06T12:07:14.812Z,37.60
2018-08-06T12:08:14.824Z,37.60
2018-08-06T12:09:14.836Z,37.32
2018-08-06T12:10:14.847Z,36.54
2018-08-06T12:11:14.859Z,37.24
2018-08-06T12:12:14.871Z,36.85
2018-08-06T12:13:14.887Z,36.36
2018-08-06T12:14:14.899Z,36.36
2018-08-06T12:15:14.929Z,36.94
2018-08-06T12:16:14.920Z,37.63
2018-08-06T12:17:14.931Z,37.34
2018-08-06T12:18:14.942Z,36.65
2018-08-06T12:19:14.955Z,37.62
2018-08-06T12:20:15.016Z,36.93
2018-08-06T12:21:14.979Z,37.63
2018-08-06T12:22:14.989Z,36.83
2018-08-06T12:23:15.001Z,36.63
2018-08-06T12:24:15.012Z,37.62
2018-08-06T12:25:15.024Z,37.62
2018-08-06T12:26:15.093Z,37.02
2018-08-06T12:27:15.058Z,36.73
2018-08-06T12:28:15.059Z,37.41
2018-08-06T12:29:15.068Z,37.30
2018-08-06T12:30:15.080Z,37.89
2018-08-06T12:31:15.098Z,37.32
2018-08-06T12:32:15.104Z,36.44
2018-08-06T12:33:15.115Z,36.05
2018-08-06T12:34:15.126Z,37.41
2018-08-06T12:35:15.137Z,36.36
2018-08-06T12:36:15.149Z,35.66
2018-08-06T12:37:15.160Z,35.48
2018-08-06T12:38:15.219Z,35.48
2018-08-06T12:39:15.182Z,35.38
2018-08-06T12:40:15.196Z,34.62
2018-08-06T12:41:15.204Z,33.74
2018-08-06T12:42:15.215Z,33.74
2018-08-06T12:43:15.228Z,33.43
2018-08-06T12:44:15.239Z,33.64
2018-08-06T12:45:15.252Z,34.52
2018-08-06T12:46:15.295Z,34.72
2018-08-06T12:47:15.273Z,33.64
2018-08-06T12:48:15.285Z,33.82
2018-08-06T12:49:15.293Z,33.82
2018-08-06T12:50:15.306Z,34.03
2018-08-06T12:51:15.316Z,33.75
2018-08-06T12:52:15.329Z,33.56